Katlin Olivia — WCY6622 — position and weather

sailwx.info

Track history (hours):
 
Tides and Currents Weather Stations Pressure Air Temp Water Temp Dewpoint Dewpoint Depression Visibility Wind Speed Wind Dir Waves Ship Positions

Katlin Olivia

Owner: LA CARRIERS, INC., CUT OFF, LA. More information available from US FCC via Universal Licensing System and Coast Guard Vessel Documentation Center.

Last reported at 2017-Oct-17 23:55 UTC. Time now 2017-Oct-18 20:38 UTC.
Position N 27°44' W 082°32'.

; draft 3 m.

Type: Towing. MMSI: 367005970.

Date/timePositionNaut miles runAvg speedWind from/ knotsBaromVisibWave heightAir tempDewpointWater temp
2017-Oct-17 23:55N 27°44' W 082°32'2 4.8
2017-Oct-17 23:28N 27°46' W 082°31'2 4.1
2017-Oct-17 23:00N 27°48' W 082°30'2 4.8
2017-Oct-17 22:30N 27°48' W 082°27'3 4.8
2017-Oct-17 21:59N 27°51' W 082°27'2 4.6
2017-Oct-17 21:30N 27°53' W 082°26'1 3.0
2017-Oct-17 21:01N 27°54' W 082°26'0 0.2
2017-Oct-17 20:31N 27°54' W 082°26'0 0.0
2017-Oct-17 20:00N 27°54' W 082°26'0 0.0
2017-Oct-17 19:30N 27°54' W 082°26'0 0.0
2017-Oct-17 19:00N 27°54' W 082°26'0 0.1
2017-Oct-17 18:31N 27°54' W 082°26'0 0.0
2017-Oct-17 18:01N 27°54' W 082°26'0 0.1
2017-Oct-17 17:30N 27°54' W 082°26'0 0.0
2017-Oct-17 17:00N 27°54' W 082°26'0 0.0
2017-Oct-17 16:30N 27°54' W 082°26'0 0.1
2017-Oct-17 16:00N 27°54' W 082°26'0 0.1
2017-Oct-17 15:30N 27°54' W 082°26'0 0.0
2017-Oct-17 15:00N 27°54' W 082°26'0 0.0
2017-Oct-17 14:30N 27°54' W 082°26'0 0.0
2017-Oct-17 14:00N 27°54' W 082°26'0 0.0
2017-Oct-17 13:30N 27°54' W 082°26'0 0.0
2017-Oct-17 13:00N 27°54' W 082°26'0 0.0
2017-Oct-17 12:30N 27°54' W 082°26'0 0.2
2017-Oct-17 12:00N 27°54' W 082°26'0 0.1
2017-Oct-17 11:30N 27°54' W 082°26'0 0.0
2017-Oct-17 11:00N 27°54' W 082°26'0 0.1
2017-Oct-17 10:31N 27°54' W 082°26'0 0.0
2017-Oct-17 10:01N 27°54' W 082°26'0 0.0
2017-Oct-17 09:30N 27°54' W 082°26'0 0.0
2017-Oct-17 09:00N 27°54' W 082°26'0 0.0
2017-Oct-17 08:30N 27°54' W 082°26'0 0.0
2017-Oct-17 08:00N 27°54' W 082°26'0 0.0
2017-Oct-17 07:30N 27°54' W 082°26'0 0.0
2017-Oct-17 07:00N 27°54' W 082°26'0 0.0
2017-Oct-17 06:30N 27°54' W 082°26'0 0.0
2017-Oct-17 06:01N 27°54' W 082°26'0 0.0
2017-Oct-17 05:30N 27°54' W 082°26'0 0.0
2017-Oct-17 05:01N 27°54' W 082°26'0 0.0
2017-Oct-17 04:30N 27°54' W 082°26'0 0.0
2017-Oct-17 04:00N 27°54' W 082°26'0 0.0
2017-Oct-17 03:31N 27°54' W 082°26'0 0.0
2017-Oct-17 03:00N 27°54' W 082°26'0 0.0
2017-Oct-17 02:30N 27°54' W 082°26'0 0.0
2017-Oct-17 02:01N 27°54' W 082°26'0 0.0
2017-Oct-17 01:30N 27°54' W 082°26'0 0.0
2017-Oct-17 01:00N 27°54' W 082°26'0 0.0
2017-Oct-17 00:30N 27°54' W 082°26'0 0.1
2017-Oct-17 00:00N 27°54' W 082°26'2 3.8
2017-Oct-16 23:30N 27°53' W 082°26'4 5.4
2017-Oct-16 22:49N 27°49' W 082°27'2 5.4
2017-Oct-16 22:29N 27°48' W 082°29'2 3.7
2017-Oct-16 22:00N 27°47' W 082°30'0 0.5
2017-Oct-16 21:27N 27°47' W 082°30'0 0.4
2017-Oct-16 21:00N 27°47' W 082°30'0 0.7
2017-Oct-16 20:30N 27°47' W 082°30'0 0.4
2017-Oct-16 20:00N 27°47' W 082°30'1 1.0
2017-Oct-16 19:30N 27°47' W 082°31'  
2017-Oct-08 22:00N 27°45' W 082°33'2 3.6
2017-Oct-08 21:27N 27°47' W 082°34'1 2.4
2017-Oct-08 20:58N 27°48' W 082°34'2 4.1
2017-Oct-08 20:30N 27°50' W 082°34'2 4.2
2017-Oct-08 20:00N 27°51' W 082°33'2 3.9
2017-Oct-08 19:30N 27°53' W 082°33'0 0.4
2017-Oct-08 18:58N 27°53' W 082°32'0 0.0
2017-Oct-08 16:55N 27°53' W 082°32'0 0.0
2017-Oct-08 13:10N 27°53' W 082°32'0 0.1
2017-Oct-08 13:00N 27°53' W 082°32'0 0.0
2017-Oct-08 04:41N 27°53' W 082°32'0 0.0
2017-Oct-08 02:37N 27°53' W 082°32'0 0.0
2017-Oct-08 02:27N 27°53' W 082°32'  
Track history (hours):
 
Tides and Currents Weather Stations Pressure Air Temp Water Temp Dewpoint Dewpoint Depression Visibility Wind Speed Wind Dir Waves Ship Positions

Katlin Olivia

Owner: LA CARRIERS, INC., CUT OFF, LA. More information available from US FCC via Universal Licensing System and Coast Guard Vessel Documentation Center.

Last reported at 2017-Oct-17 23:55 UTC. Time now 2017-Oct-18 20:38 UTC.
Position N 27°44' W 082°32'.

; draft 3 m.

Type: Towing. MMSI: 367005970.

Date/timePositionNaut miles runAvg speedWind from/ knotsBaromVisibWave heightAir tempDewpointWater temp
2017-Oct-17 23:55N 27°44' W 082°32'2 4.8
2017-Oct-17 23:28N 27°46' W 082°31'2 4.1
2017-Oct-17 23:00N 27°48' W 082°30'2 4.8
2017-Oct-17 22:30N 27°48' W 082°27'3 4.8
2017-Oct-17 21:59N 27°51' W 082°27'2 4.6
2017-Oct-17 21:30N 27°53' W 082°26'1 3.0
2017-Oct-17 21:01N 27°54' W 082°26'0 0.2
2017-Oct-17 20:31N 27°54' W 082°26'0 0.0
2017-Oct-17 20:00N 27°54' W 082°26'0 0.0
2017-Oct-17 19:30N 27°54' W 082°26'0 0.0
2017-Oct-17 19:00N 27°54' W 082°26'0 0.1
2017-Oct-17 18:31N 27°54' W 082°26'0 0.0
2017-Oct-17 18:01N 27°54' W 082°26'0 0.1
2017-Oct-17 17:30N 27°54' W 082°26'0 0.0
2017-Oct-17 17:00N 27°54' W 082°26'0 0.0
2017-Oct-17 16:30N 27°54' W 082°26'0 0.1
2017-Oct-17 16:00N 27°54' W 082°26'0 0.1
2017-Oct-17 15:30N 27°54' W 082°26'0 0.0
2017-Oct-17 15:00N 27°54' W 082°26'0 0.0
2017-Oct-17 14:30N 27°54' W 082°26'0 0.0
2017-Oct-17 14:00N 27°54' W 082°26'0 0.0
2017-Oct-17 13:30N 27°54' W 082°26'0 0.0
2017-Oct-17 13:00N 27°54' W 082°26'0 0.0
2017-Oct-17 12:30N 27°54' W 082°26'0 0.2
2017-Oct-17 12:00N 27°54' W 082°26'0 0.1
2017-Oct-17 11:30N 27°54' W 082°26'0 0.0
2017-Oct-17 11:00N 27°54' W 082°26'0 0.1
2017-Oct-17 10:31N 27°54' W 082°26'0 0.0
2017-Oct-17 10:01N 27°54' W 082°26'0 0.0
2017-Oct-17 09:30N 27°54' W 082°26'0 0.0
2017-Oct-17 09:00N 27°54' W 082°26'0 0.0
2017-Oct-17 08:30N 27°54' W 082°26'0 0.0
2017-Oct-17 08:00N 27°54' W 082°26'0 0.0
2017-Oct-17 07:30N 27°54' W 082°26'0 0.0
2017-Oct-17 07:00N 27°54' W 082°26'0 0.0
2017-Oct-17 06:30N 27°54' W 082°26'0 0.0
2017-Oct-17 06:01N 27°54' W 082°26'0 0.0
2017-Oct-17 05:30N 27°54' W 082°26'0 0.0
2017-Oct-17 05:01N 27°54' W 082°26'0 0.0
2017-Oct-17 04:30N 27°54' W 082°26'0 0.0
2017-Oct-17 04:00N 27°54' W 082°26'0 0.0
2017-Oct-17 03:31N 27°54' W 082°26'0 0.0
2017-Oct-17 03:00N 27°54' W 082°26'0 0.0
2017-Oct-17 02:30N 27°54' W 082°26'0 0.0
2017-Oct-17 02:01N 27°54' W 082°26'0 0.0
2017-Oct-17 01:30N 27°54' W 082°26'0 0.0
2017-Oct-17 01:00N 27°54' W 082°26'0 0.0
2017-Oct-17 00:30N 27°54' W 082°26'0 0.1
2017-Oct-17 00:00N 27°54' W 082°26'2 3.8
2017-Oct-16 23:30N 27°53' W 082°26'4 5.4
2017-Oct-16 22:49N 27°49' W 082°27'2 5.4
2017-Oct-16 22:29N 27°48' W 082°29'2 3.7
2017-Oct-16 22:00N 27°47' W 082°30'0 0.5
2017-Oct-16 21:27N 27°47' W 082°30'0 0.4
2017-Oct-16 21:00N 27°47' W 082°30'0 0.7
2017-Oct-16 20:30N 27°47' W 082°30'0 0.4
2017-Oct-16 20:00N 27°47' W 082°30'1 1.0
2017-Oct-16 19:30N 27°47' W 082°31'  
2017-Oct-08 22:00N 27°45' W 082°33'2 3.6
2017-Oct-08 21:27N 27°47' W 082°34'1 2.4
2017-Oct-08 20:58N 27°48' W 082°34'2 4.1
2017-Oct-08 20:30N 27°50' W 082°34'2 4.2
2017-Oct-08 20:00N 27°51' W 082°33'2 3.9
2017-Oct-08 19:30N 27°53' W 082°33'0 0.4
2017-Oct-08 18:58N 27°53' W 082°32'0 0.0
2017-Oct-08 16:55N 27°53' W 082°32'0 0.0
2017-Oct-08 13:10N 27°53' W 082°32'0 0.1
2017-Oct-08 13:00N 27°53' W 082°32'0 0.0
2017-Oct-08 04:41N 27°53' W 082°32'0 0.0
2017-Oct-08 02:37N 27°53' W 082°32'0 0.0
2017-Oct-08 02:27N 27°53' W 082°32'  

Dump ship's entire track history